Time;durP1;ratioP1;P1;durP2;ratioP2;P2;SDS_P1;SDS_P2;PMS_P1;PMS_P2;Temp;Humidity;BMP_temperature;BMP_pressure;BME280_temperature;BME280_humidity;BME280_pressure;Samples;Min_cycle;Max_cycle;Signal;HPM_P1;HPM_P2
2023/12/27 00:00:37;;;;;;;6.30;1.93;;;;;;;9.62;100.00;96863.69;5032586;28;20209;-69
2023/12/27 00:03:04;;;;;;;3.73;2.07;;;;;;;9.63;100.00;96858.28;5031326;28;20440;-69
2023/12/27 00:05:31;;;;;;;1.80;1.30;;;;;;;9.61;100.00;96857.63;5032290;28;20205;-68
2023/12/27 00:07:58;;;;;;;3.53;1.90;;;;;;;9.63;100.00;96860.91;5034178;28;20212;-70
2023/12/27 00:10:26;;;;;;;4.07;2.17;;;;;;;9.78;100.00;96869.88;5034206;28;20597;-69
2023/12/27 00:12:52;;;;;;;4.67;1.60;;;;;;;9.62;100.00;96867.13;5035128;28;20232;-70
2023/12/27 00:15:19;;;;;;;5.13;1.40;;;;;;;9.68;100.00;96860.44;5039255;28;20201;-68
2023/12/27 00:17:45;;;;;;;4.60;1.70;;;;;;;9.66;100.00;96857.13;5038675;28;20211;-69
2023/12/27 00:20:12;;;;;;;5.17;1.87;;;;;;;9.73;100.00;96851.91;5038610;28;20225;-69
2023/12/27 00:22:39;;;;;;;3.10;1.67;;;;;;;9.73;100.00;96866.88;5038992;28;20236;-69
2023/12/27 00:25:05;;;;;;;3.43;1.70;;;;;;;9.70;100.00;96867.22;5037228;28;20279;-69
2023/12/27 00:27:33;;;;;;;6.87;1.80;;;;;;;9.77;100.00;96869.03;5035927;28;20206;-68
2023/12/27 00:30:00;;;;;;;3.43;1.83;;;;;;;9.52;100.00;96876.13;5037907;28;20270;-68
2023/12/27 00:32:27;;;;;;;8.30;1.93;;;;;;;9.52;100.00;96881.38;5036058;28;20730;-69
2023/12/27 00:34:53;;;;;;;2.87;1.77;;;;;;;9.55;100.00;96887.16;5036970;28;20733;-68
2023/12/27 00:37:20;;;;;;;6.50;1.90;;;;;;;9.47;100.00;96886.28;5038741;28;20197;-69
2023/12/27 00:39:47;;;;;;;4.77;1.77;;;;;;;9.45;100.00;96886.44;5038321;28;21034;-69
2023/12/27 00:42:14;;;;;;;2.67;1.70;;;;;;;9.49;100.00;96873.81;5037832;28;20213;-68
2023/12/27 00:44:42;;;;;;;4.33;2.00;;;;;;;9.63;100.00;96874.06;5038722;28;20205;-69
2023/12/27 00:47:07;;;;;;;9.13;1.60;;;;;;;9.50;100.00;96871.03;5037807;28;20205;-69
2023/12/27 00:49:34;;;;;;;4.73;2.30;;;;;;;9.51;100.00;96869.22;5038582;28;20239;-69
2023/12/27 00:52:00;;;;;;;3.33;1.60;;;;;;;9.56;100.00;96877.47;5038329;28;20676;-69
2023/12/27 00:54:27;;;;;;;2.60;1.70;;;;;;;9.47;100.00;96883.66;5037839;28;20212;-68
2023/12/27 00:56:53;;;;;;;5.17;1.40;;;;;;;9.49;100.00;96873.81;5038662;28;20201;-68
2023/12/27 00:59:20;;;;;;;4.97;1.50;;;;;;;9.55;100.00;96884.53;5037937;28;20217;-69
2023/12/27 01:01:48;;;;;;;4.10;1.73;;;;;;;9.69;100.00;96881.34;5037782;28;20333;-69
2023/12/27 01:04:14;;;;;;;6.00;2.27;;;;;;;9.57;100.00;96877.34;5037749;28;20232;-69
2023/12/27 01:06:41;;;;;;;3.47;1.63;;;;;;;9.44;100.00;96886.59;5038324;28;20205;-69
2023/12/27 01:09:07;;;;;;;3.30;1.63;;;;;;;9.50;100.00;96881.53;5037609;28;20568;-69
2023/12/27 01:11:34;;;;;;;6.07;1.67;;;;;;;9.49;100.00;96894.84;5037679;28;20213;-70
2023/12/27 01:14:02;;;;;;;2.87;1.23;;;;;;;9.49;100.00;96895.69;5037719;28;20221;-69
2023/12/27 01:16:28;;;;;;;3.47;1.43;;;;;;;9.53;100.00;96894.38;5037287;28;20197;-69
2023/12/27 01:18:56;;;;;;;2.73;1.23;;;;;;;9.65;100.00;96885.25;5037181;28;20252;-69
2023/12/27 01:21:22;;;;;;;3.13;1.13;;;;;;;9.51;100.00;96882.34;5038115;28;20671;-70
2023/12/27 01:23:49;;;;;;;2.43;1.20;;;;;;;9.45;100.00;96869.84;5037409;28;20228;-69
2023/12/27 01:26:15;;;;;;;3.47;1.37;;;;;;;9.33;100.00;96873.69;5037304;28;20224;-67
2023/12/27 01:28:42;;;;;;;7.40;1.73;;;;;;;9.33;100.00;96868.44;5037735;28;20205;-68
2023/12/27 01:31:09;;;;;;;4.53;1.43;;;;;;;9.35;100.00;96877.81;5037766;28;20201;-69
2023/12/27 01:33:36;;;;;;;2.87;1.30;;;;;;;9.30;100.00;96871.38;5037202;28;20217;-69
2023/12/27 01:36:08;;;;;;;4.70;1.47;;;;;;;9.52;100.00;96868.22;5037754;28;20198;-70
2023/12/27 01:38:34;;;;;;;2.90;1.37;;;;;;;9.32;100.00;96877.31;5037795;28;21028;-68
2023/12/27 01:41:01;;;;;;;2.17;1.20;;;;;;;9.34;100.00;96883.25;5037458;28;20211;-70
2023/12/27 01:43:27;;;;;;;6.83;1.23;;;;;;;9.32;100.00;96878.13;5036338;28;20228;-69
2023/12/27 01:45:54;;;;;;;3.17;1.57;;;;;;;9.37;100.00;96880.31;5036962;28;20417;-68
2023/12/27 01:48:21;;;;;;;1.67;1.20;;;;;;;9.37;100.00;96877.69;5037697;28;20204;-68
2023/12/27 01:50:48;;;;;;;3.70;1.13;;;;;;;9.23;100.00;96873.00;5037374;28;21190;-69
2023/12/27 01:53:17;;;;;;;5.00;1.50;;;;;;;9.44;100.00;96868.19;5036884;28;20225;-69
2023/12/27 01:55:44;;;;;;;4.10;1.27;;;;;;;9.31;100.00;96873.84;5037101;28;20216;-69
2023/12/27 01:58:12;;;;;;;3.93;1.53;;;;;;;9.34;100.00;96880.59;5037245;28;20212;-69
2023/12/27 02:00:41;;;;;;;2.40;1.30;;;;;;;9.38;100.00;96876.69;5036833;28;20229;-69
2023/12/27 02:03:09;;;;;;;2.13;1.30;;;;;;;9.29;100.00;96877.63;5036276;28;20229;-69
2023/12/27 02:05:36;;;;;;;3.37;1.60;;;;;;;9.21;100.00;96869.66;5037149;28;20201;-69
2023/12/27 02:08:03;;;;;;;7.20;1.37;;;;;;;9.21;100.00;96865.22;5037108;28;20209;-69
2023/12/27 02:10:31;;;;;;;5.87;1.60;;;;;;;9.25;100.00;96858.72;5036644;28;20204;-70
2023/12/27 02:13:03;;;;;;;4.00;1.47;;;;;;;9.33;100.00;96852.66;5036433;28;20217;-70
2023/12/27 02:15:30;;;;;;;2.40;1.27;;;;;;;9.09;100.00;96849.88;5036683;28;20240;-70
2023/12/27 02:17:59;;;;;;;2.43;1.47;;;;;;;9.15;100.00;96843.97;5037237;28;20205;-68
2023/12/27 02:20:26;;;;;;;2.67;1.20;;;;;;;9.17;100.00;96850.75;5037152;28;20274;-68
2023/12/27 02:22:55;;;;;;;2.47;1.30;;;;;;;9.24;100.00;96848.31;5035591;28;20232;-68
2023/12/27 02:25:24;;;;;;;1.60;1.10;;;;;;;9.09;100.00;96850.69;5036484;28;20603;-69
2023/12/27 02:27:50;;;;;;;3.30;1.50;;;;;;;8.73;100.00;96858.78;5037150;28;21057;-69
2023/12/27 02:30:18;;;;;;;4.37;1.50;;;;;;;9.04;100.00;96825.84;5036399;28;20197;-68
2023/12/27 02:32:45;;;;;;;3.73;1.83;;;;;;;9.04;100.00;96836.38;5035899;28;20706;-68
2023/12/27 02:35:12;;;;;;;5.40;1.50;;;;;;;9.04;100.00;96832.88;5036709;28;20609;-69
2023/12/27 02:37:38;;;;;;;1.90;1.20;;;;;;;9.00;100.00;96829.75;5035149;28;20697;-69
2023/12/27 02:40:07;;;;;;;4.83;1.50;;;;;;;9.08;100.00;96817.47;5036622;28;20228;-68
2023/12/27 02:42:35;;;;;;;2.83;1.33;;;;;;;9.22;100.00;96816.09;5035344;28;20224;-68
2023/12/27 02:45:02;;;;;;;4.20;1.63;;;;;;;9.02;100.00;96817.28;5035620;28;20201;-68
2023/12/27 02:47:28;;;;;;;3.37;1.30;;;;;;;8.98;100.00;96823.00;5036153;28;20688;-68
2023/12/27 02:49:55;;;;;;;2.53;1.13;;;;;;;8.86;100.00;96814.53;5035833;28;20201;-68
2023/12/27 02:52:21;;;;;;;3.67;1.03;;;;;;;8.87;100.00;96823.22;5035268;28;20231;-68
2023/12/27 02:54:48;;;;;;;2.70;1.10;;;;;;;8.92;100.00;96813.91;5029211;28;20209;-67
2023/12/27 02:57:14;;;;;;;2.87;1.57;;;;;;;8.95;100.00;96818.88;5033589;28;20197;-68
2023/12/27 02:59:42;;;;;;;5.03;1.07;;;;;;;9.11;100.00;96821.59;5033297;28;20224;-68
2023/12/27 03:02:08;;;;;;;1.83;0.90;;;;;;;8.99;100.00;96820.22;5033601;28;20232;-68
2023/12/27 03:04:35;;;;;;;3.90;1.20;;;;;;;9.02;100.00;96821.72;5035815;28;20209;-69
2023/12/27 03:07:02;;;;;;;2.10;1.47;;;;;;;8.96;100.00;96819.69;5035796;28;20209;-68
2023/12/27 03:09:29;;;;;;;5.97;1.20;;;;;;;9.01;100.00;96817.44;5035872;28;20312;-68
2023/12/27 03:11:56;;;;;;;2.23;1.40;;;;;;;9.02;100.00;96809.38;5035138;28;20204;-69
2023/12/27 03:14:22;;;;;;;2.83;1.40;;;;;;;9.01;100.00;96814.81;5035032;28;21289;-68
2023/12/27 03:16:50;;;;;;;1.23;1.07;;;;;;;9.10;100.00;96809.47;5030960;28;20205;-68
2023/12/27 03:19:17;;;;;;;2.37;1.40;;;;;;;9.11;100.00;96808.47;5033917;28;20595;-68
2023/12/27 03:21:44;;;;;;;2.30;1.30;;;;;;;8.96;100.00;96815.28;5034385;28;21074;-68
2023/12/27 03:24:11;;;;;;;1.97;1.30;;;;;;;8.97;100.00;96819.53;5033999;28;20327;-68
2023/12/27 03:26:37;;;;;;;1.63;1.00;;;;;;;8.78;100.00;96821.53;5034683;28;20217;-69
2023/12/27 03:29:04;;;;;;;1.50;1.20;;;;;;;8.87;100.00;96826.72;5034510;28;20201;-69
2023/12/27 03:31:30;;;;;;;8.23;1.53;;;;;;;8.89;100.00;96826.56;5031913;28;20700;-69
2023/12/27 03:33:58;;;;;;;2.17;1.30;;;;;;;9.06;100.00;96826.50;5034760;28;20224;-69
2023/12/27 03:36:25;;;;;;;3.93;1.23;;;;;;;8.87;100.00;96824.09;5033914;28;20934;-68
2023/12/27 03:38:52;;;;;;;3.27;1.10;;;;;;;8.95;100.00;96824.13;5033888;28;20205;-68
2023/12/27 03:41:18;;;;;;;2.27;1.50;;;;;;;8.93;100.00;96818.19;5028205;28;20237;-68
2023/12/27 03:43:45;;;;;;;1.73;1.40;;;;;;;8.92;100.00;96821.78;5031534;28;20225;-68
2023/12/27 03:46:12;;;;;;;1.80;1.30;;;;;;;8.89;100.00;96819.47;5030105;28;20201;-68
2023/12/27 03:48:38;;;;;;;2.10;1.23;;;;;;;8.83;100.00;96827.16;5029318;28;20209;-68
2023/12/27 03:51:06;;;;;;;3.83;1.53;;;;;;;8.98;100.00;96815.13;5029898;28;20200;-68
2023/12/27 03:53:33;;;;;;;1.80;1.13;;;;;;;8.88;100.00;96817.00;5031008;28;20220;-68
2023/12/27 03:55:59;;;;;;;1.00;1.00;;;;;;;8.90;100.00;96823.75;5029720;28;20689;-68
2023/12/27 03:58:26;;;;;;;2.97;1.40;;;;;;;8.90;100.00;96817.69;5031467;28;20205;-69
2023/12/27 04:00:52;;;;;;;2.23;1.80;;;;;;;8.79;100.00;96821.38;5029628;28;20222;-69
2023/12/27 04:03:19;;;;;;;1.63;1.37;;;;;;;8.82;100.00;96818.44;5030268;28;20233;-69
2023/12/27 04:05:45;;;;;;;6.73;1.60;;;;;;;8.85;100.00;96820.75;5031204;28;20205;-68
2023/12/27 04:08:13;;;;;;;3.33;1.57;;;;;;;8.92;100.00;96821.78;5027473;28;20204;-69
2023/12/27 04:10:40;;;;;;;3.23;1.40;;;;;;;8.77;100.00;96818.09;5031777;28;20197;-68
2023/12/27 04:13:06;;;;;;;4.33;1.23;;;;;;;8.65;100.00;96824.53;5032268;28;20252;-68
2023/12/27 04:15:33;;;;;;;5.40;1.43;;;;;;;8.68;100.00;96813.75;5031857;28;20207;-68
2023/12/27 04:17:59;;;;;;;2.00;1.37;;;;;;;8.71;100.00;96807.34;5032218;28;20597;-68
2023/12/27 04:20:26;;;;;;;2.67;1.43;;;;;;;8.70;100.00;96805.69;5032050;28;20736;-68
2023/12/27 04:22:52;;;;;;;2.17;1.40;;;;;;;8.68;100.00;96805.84;5032374;28;20224;-68
2023/12/27 04:25:20;;;;;;;5.90;1.60;;;;;;;8.83;100.00;96801.69;5031695;28;20201;-69
2023/12/27 04:27:47;;;;;;;4.17;1.30;;;;;;;8.65;100.00;96802.69;5031973;28;20216;-69
2023/12/27 04:30:13;;;;;;;2.57;1.40;;;;;;;8.66;100.00;96799.09;5032724;28;20200;-68
2023/12/27 04:32:40;;;;;;;1.90;1.47;;;;;;;8.55;100.00;96802.78;5032742;28;20227;-68
2023/12/27 04:35:07;;;;;;;1.93;1.23;;;;;;;8.62;100.00;96793.31;5033544;28;21144;-69
2023/12/27 04:37:34;;;;;;;5.20;2.03;;;;;;;8.52;100.00;96803.06;5032986;28;20284;-69
2023/12/27 04:40:00;;;;;;;5.90;1.47;;;;;;;8.41;100.00;96810.34;5032098;28;20666;-69
2023/12/27 04:42:28;;;;;;;1.83;1.33;;;;;;;8.54;100.00;96809.00;5033889;28;20221;-68
2023/12/27 04:44:55;;;;;;;3.80;1.80;;;;;;;8.45;100.00;96810.88;5033062;28;20212;-67
2023/12/27 04:47:21;;;;;;;3.07;1.53;;;;;;;8.44;100.00;96811.84;5031158;28;20201;-67
2023/12/27 04:49:48;;;;;;;3.20;1.77;;;;;;;8.37;100.00;96805.56;5033348;28;20197;-68
2023/12/27 04:52:15;;;;;;;4.23;1.57;;;;;;;8.32;100.00;96795.50;5033061;28;20197;-67
2023/12/27 04:54:41;;;;;;;3.37;2.03;;;;;;;8.23;100.00;96799.03;5032623;28;20205;-68
2023/12/27 04:57:08;;;;;;;2.23;1.30;;;;;;;8.18;100.00;96805.69;5033341;28;20718;-67
2023/12/27 04:59:36;;;;;;;6.17;2.07;;;;;;;8.31;100.00;96793.03;5037267;28;20616;-68
2023/12/27 05:02:02;;;;;;;3.67;1.70;;;;;;;7.98;100.00;96798.88;5036307;28;20202;-68
2023/12/27 05:04:29;;;;;;;4.93;1.93;;;;;;;7.96;100.00;96799.03;5037461;28;20206;-68
2023/12/27 05:06:55;;;;;;;4.50;2.00;;;;;;;7.88;100.00;96803.38;5038407;28;20205;-68
2023/12/27 05:09:22;;;;;;;3.30;1.53;;;;;;;7.80;100.00;96808.50;5035767;28;20741;-68
2023/12/27 05:11:49;;;;;;;4.43;1.53;;;;;;;7.68;100.00;96809.69;5035610;28;21077;-68
2023/12/27 05:14:16;;;;;;;1.67;1.40;;;;;;;7.68;100.00;96807.06;5037323;28;20216;-68
2023/12/27 05:16:46;;;;;;;2.50;1.67;;;;;;;7.73;100.00;96807.47;5037200;28;20213;-68
2023/12/27 05:19:13;;;;;;;3.87;1.87;;;;;;;7.53;100.00;96798.03;5037880;28;20288;-67
2023/12/27 05:21:40;;;;;;;2.47;1.43;;;;;;;7.39;100.00;96795.06;5036999;28;20225;-69
2023/12/27 05:24:06;;;;;;;2.87;1.50;;;;;;;7.42;100.00;96798.22;5037184;28;20225;-68
2023/12/27 05:26:33;;;;;;;5.83;1.47;;;;;;;7.31;100.00;96795.78;5037356;28;20671;-68
2023/12/27 05:28:59;;;;;;;6.10;2.03;;;;;;;7.31;100.00;96794.97;5037223;28;20212;-68
2023/12/27 05:31:26;;;;;;;3.03;1.70;;;;;;;7.17;100.00;96791.97;5036903;28;20454;-67
2023/12/27 05:33:54;;;;;;;4.20;1.73;;;;;;;7.34;100.00;96795.50;5037624;28;20221;-67
2023/12/27 05:36:21;;;;;;;3.37;1.73;;;;;;;7.08;100.00;96798.06;5037815;28;20203;-68
2023/12/27 05:38:48;;;;;;;3.20;2.10;;;;;;;7.18;100.00;96804.09;5037422;28;20205;-68
2023/12/27 05:41:14;;;;;;;3.23;1.53;;;;;;;7.05;100.00;96788.72;5036662;28;20236;-67
2023/12/27 05:43:41;;;;;;;2.63;1.30;;;;;;;6.99;100.00;96796.31;5037516;28;20225;-67
2023/12/27 05:46:07;;;;;;;5.60;1.80;;;;;;;6.96;100.00;96805.28;5036421;28;20197;-67
2023/12/27 05:48:34;;;;;;;2.80;2.20;;;;;;;6.87;100.00;96806.13;5037475;28;20197;-68
2023/12/27 05:51:01;;;;;;;2.67;1.50;;;;;;;6.95;100.00;96802.78;5037679;28;20212;-68
2023/12/27 05:53:28;;;;;;;3.47;1.80;;;;;;;6.72;100.00;96811.91;5036606;28;20221;-68
2023/12/27 05:55:55;;;;;;;5.90;1.53;;;;;;;6.68;100.00;96810.53;5036628;28;20220;-69
2023/12/27 05:58:21;;;;;;;4.70;1.53;;;;;;;6.54;100.00;96805.72;5036684;28;20601;-67
2023/12/27 06:00:48;;;;;;;5.27;1.67;;;;;;;6.40;100.00;96806.16;5036357;28;20225;-67
2023/12/27 06:03:14;;;;;;;3.87;1.47;;;;;;;6.35;100.00;96803.13;5035716;28;20737;-67
2023/12/27 06:05:41;;;;;;;2.57;1.37;;;;;;;6.42;100.00;96809.47;5038274;28;20197;-68
2023/12/27 06:08:09;;;;;;;5.30;1.80;;;;;;;6.38;100.00;96815.13;5035875;28;20236;-67
2023/12/27 06:10:36;;;;;;;4.20;1.67;;;;;;;6.16;100.00;96820.59;5035815;28;20208;-67
2023/12/27 06:13:03;;;;;;;3.37;1.73;;;;;;;6.17;100.00;96820.47;5036711;28;20229;-68
2023/12/27 06:15:29;;;;;;;2.67;1.70;;;;;;;6.24;100.00;96811.13;5037320;28;20311;-67
2023/12/27 06:17:56;;;;;;;4.77;1.73;;;;;;;6.19;100.00;96813.31;5036104;28;20212;-66
2023/12/27 06:20:22;;;;;;;2.90;1.97;;;;;;;6.23;100.00;96819.91;5037132;28;20710;-66
2023/12/27 06:22:49;;;;;;;2.27;1.50;;;;;;;6.04;100.00;96813.03;5035608;28;20229;-67
2023/12/27 06:25:17;;;;;;;3.57;1.83;;;;;;;6.15;100.00;96806.69;5036716;28;20205;-68
2023/12/27 06:27:43;;;;;;;4.20;1.90;;;;;;;6.06;100.00;96812.75;5037686;28;20219;-68
2023/12/27 06:30:11;;;;;;;4.57;2.20;;;;;;;5.98;100.00;96813.56;5036124;28;20206;-67
2023/12/27 06:32:38;;;;;;;7.00;2.00;;;;;;;6.06;100.00;96804.91;5035869;28;20233;-68
2023/12/27 06:35:05;;;;;;;2.80;1.60;;;;;;;6.00;100.00;96807.22;5036070;28;20201;-68
2023/12/27 06:37:31;;;;;;;4.63;2.60;;;;;;;5.98;100.00;96801.28;5037390;28;20576;-67
2023/12/27 06:39:58;;;;;;;8.67;2.80;;;;;;;5.93;100.00;96797.44;5035301;28;20201;-67
2023/12/27 06:42:25;;;;;;;8.53;2.10;;;;;;;6.02;100.00;96787.00;5035560;28;20300;-68
2023/12/27 06:44:52;;;;;;;4.33;2.03;;;;;;;5.87;100.00;96787.50;5036650;28;20197;-68
2023/12/27 06:47:19;;;;;;;4.43;2.03;;;;;;;5.90;100.00;96789.88;5035717;28;20205;-70
2023/12/27 06:49:47;;;;;;;5.50;2.10;;;;;;;5.85;100.00;96790.28;5036445;28;20205;-70
2023/12/27 06:52:13;;;;;;;6.53;2.87;;;;;;;5.85;100.00;96797.31;5035569;28;20197;-70
2023/12/27 06:54:40;;;;;;;5.27;2.13;;;;;;;5.86;100.00;96791.94;5036266;28;20209;-69
2023/12/27 06:57:07;;;;;;;3.03;2.07;;;;;;;5.85;100.00;96797.31;5032920;28;20205;-68
2023/12/27 06:59:35;;;;;;;5.17;1.90;;;;;;;6.00;100.00;96799.38;5034178;28;20205;-68
2023/12/27 07:02:02;;;;;;;2.90;1.73;;;;;;;5.94;100.00;96791.25;5033226;28;20225;-69
2023/12/27 07:04:28;;;;;;;5.00;1.83;;;;;;;5.92;100.00;96788.78;5034691;28;20216;-68
2023/12/27 07:06:55;;;;;;;5.60;2.30;;;;;;;6.02;100.00;96787.00;5033865;28;20205;-70
2023/12/27 07:09:22;;;;;;;3.27;2.00;;;;;;;6.02;100.00;96778.31;5034325;28;21028;-68
2023/12/27 07:11:49;;;;;;;3.23;1.57;;;;;;;5.94;100.00;96776.38;5034234;28;20209;-68
2023/12/27 07:14:16;;;;;;;5.83;2.20;;;;;;;6.03;100.00;96774.75;5035122;28;20256;-68
2023/12/27 07:16:44;;;;;;;2.97;1.70;;;;;;;6.05;100.00;96776.25;5033406;28;20575;-69
2023/12/27 07:19:11;;;;;;;3.63;1.87;;;;;;;5.87;100.00;96772.66;5033474;28;20856;-70
2023/12/27 07:21:38;;;;;;;3.53;2.13;;;;;;;5.94;100.00;96784.22;5032637;28;20311;-70
2023/12/27 07:24:06;;;;;;;6.37;2.70;;;;;;;5.94;100.00;96792.06;5032663;28;20217;-69
2023/12/27 07:26:33;;;;;;;3.07;1.90;;;;;;;5.97;100.00;96796.22;5032234;28;20201;-68
2023/12/27 07:29:00;;;;;;;5.93;1.80;;;;;;;6.04;100.00;96793.72;5033011;28;20204;-67
2023/12/27 07:31:26;;;;;;;4.07;1.80;;;;;;;6.09;100.00;96796.78;5032311;28;20675;-68
2023/12/27 07:33:54;;;;;;;2.97;1.67;;;;;;;6.14;100.00;96801.59;5030964;28;20718;-68
2023/12/27 07:36:21;;;;;;;3.40;2.13;;;;;;;6.14;100.00;96799.81;5031960;28;21079;-68
2023/12/27 07:38:48;;;;;;;3.83;2.10;;;;;;;6.15;100.00;96801.47;5034281;28;20232;-68
2023/12/27 07:41:14;;;;;;;3.07;1.57;;;;;;;6.07;100.00;96814.41;5031464;28;20233;-68
2023/12/27 07:43:41;;;;;;;3.10;1.77;;;;;;;6.09;100.00;96817.69;5033282;28;20320;-69
2023/12/27 07:46:08;;;;;;;5.57;2.20;;;;;;;6.18;100.00;96810.84;5033494;28;20697;-68
2023/12/27 07:48:35;;;;;;;3.60;1.80;;;;;;;6.27;100.00;96817.88;5034029;28;20677;-68
2023/12/27 07:51:04;;;;;;;4.77;2.10;;;;;;;6.45;100.00;96827.50;5034081;28;20193;-70
2023/12/27 07:53:30;;;;;;;3.50;2.10;;;;;;;6.34;100.00;96825.03;5032455;28;21484;-68
2023/12/27 07:55:57;;;;;;;4.60;2.00;;;;;;;6.36;100.00;96825.72;5033140;28;20209;-68
2023/12/27 07:58:24;;;;;;;3.27;2.00;;;;;;;6.40;100.00;96828.88;5033797;28;20666;-69
2023/12/27 08:00:50;;;;;;;4.47;2.43;;;;;;;6.48;100.00;96827.25;5034222;28;20229;-70
2023/12/27 08:03:17;;;;;;;4.73;2.40;;;;;;;6.55;100.00;96824.91;5032905;28;20236;-69
2023/12/27 08:05:43;;;;;;;6.27;2.60;;;;;;;6.59;100.00;96827.09;5034266;28;20208;-68
2023/12/27 08:08:11;;;;;;;4.87;2.03;;;;;;;6.79;100.00;96820.88;5033071;28;20212;-68
2023/12/27 08:10:37;;;;;;;9.73;2.20;;;;;;;6.72;100.00;96823.22;5034303;28;20217;-68
2023/12/27 08:13:05;;;;;;;5.20;2.47;;;;;;;6.83;100.00;96824.88;5031443;28;20228;-68
2023/12/27 08:15:31;;;;;;;6.10;2.70;;;;;;;6.95;100.00;96828.97;5032170;28;20685;-68
2023/12/27 08:17:58;;;;;;;6.30;3.03;;;;;;;6.97;100.00;96833.09;5032103;28;20205;-68
2023/12/27 08:20:24;;;;;;;3.80;2.10;;;;;;;7.65;100.00;96825.72;5032106;28;20224;-69
2023/12/27 08:22:51;;;;;;;8.27;2.47;;;;;;;8.29;100.00;96826.50;5032204;28;20229;-69
2023/12/27 08:25:19;;;;;;;4.67;2.37;;;;;;;8.39;100.00;96829.84;5033045;28;20216;-69
2023/12/27 08:27:45;;;;;;;12.50;4.30;;;;;;;8.37;100.00;96827.38;5034071;28;20201;-67
2023/12/27 08:30:13;;;;;;;6.37;3.67;;;;;;;8.36;100.00;96822.28;5034227;28;20212;-71
2023/12/27 08:32:39;;;;;;;7.83;3.00;;;;;;;7.79;100.00;96813.91;5034220;28;20634;-69
2023/12/27 08:35:06;;;;;;;4.80;2.37;;;;;;;7.81;100.00;96812.78;5036378;28;20209;-68
2023/12/27 08:37:33;;;;;;;7.07;2.43;;;;;;;7.25;100.00;96820.91;5038644;28;20198;-70
2023/12/27 08:39:59;;;;;;;4.43;2.67;;;;;;;7.31;100.00;96821.16;5037652;28;20212;-69
2023/12/27 08:42:27;;;;;;;5.77;2.93;;;;;;;7.22;100.00;96821.19;5036692;28;20225;-69
2023/12/27 08:44:54;;;;;;;4.47;2.77;;;;;;;6.90;100.00;96823.34;5038146;28;20200;-70
2023/12/27 08:47:20;;;;;;;6.57;2.27;;;;;;;6.95;100.00;96824.56;5037073;28;20208;-70
2023/12/27 08:49:47;;;;;;;8.67;3.70;;;;;;;6.88;100.00;96815.63;5037971;28;20205;-69
2023/12/27 08:52:13;;;;;;;12.73;6.33;;;;;;;7.10;100.00;96811.84;5035939;28;20197;-71
2023/12/27 08:54:40;;;;;;;12.53;4.60;;;;;;;7.26;100.00;96808.47;5036587;28;20229;-68
2023/12/27 08:57:07;;;;;;;5.63;2.57;;;;;;;7.35;100.00;96802.38;5034676;28;20204;-69
2023/12/27 08:59:35;;;;;;;6.00;4.30;;;;;;;7.36;100.00;96804.03;5037989;28;20205;-69
2023/12/27 09:02:01;;;;;;;6.30;3.40;;;;;;;7.19;100.00;96805.75;5037239;28;20225;-69
2023/12/27 09:04:28;;;;;;;8.30;3.30;;;;;;;7.57;100.00;96804.63;5037373;28;20217;-69
2023/12/27 09:06:54;;;;;;;11.13;5.50;;;;;;;7.86;100.00;96808.75;5038408;28;20212;-68
2023/12/27 09:09:21;;;;;;;9.53;4.27;;;;;;;8.09;100.00;96817.06;5037046;28;20201;-69
2023/12/27 09:11:47;;;;;;;7.40;3.43;;;;;;;8.14;100.00;96820.09;5035561;28;20228;-68
2023/12/27 09:14:14;;;;;;;5.87;3.20;;;;;;;8.15;100.00;96821.75;5037125;28;20709;-68
2023/12/27 09:16:42;;;;;;;6.30;2.40;;;;;;;8.25;100.00;96822.50;5038158;28;20205;-68
2023/12/27 09:19:09;;;;;;;6.73;2.57;;;;;;;8.20;100.00;96830.00;5036335;28;20843;-70
2023/12/27 09:21:43;;;;;;;5.67;2.90;;;;;;;8.58;100.00;96834.00;5037382;28;20236;-70
2023/12/27 09:24:09;;;;;;;22.10;3.27;;;;;;;8.45;100.00;96826.63;5037023;28;20304;-68
2023/12/27 09:26:35;;;;;;;5.43;2.80;;;;;;;8.22;100.00;96817.56;5037954;28;20197;-69
2023/12/27 09:29:02;;;;;;;7.23;2.93;;;;;;;7.94;100.00;96815.91;5037009;28;20296;-71
2023/12/27 09:31:30;;;;;;;5.87;2.70;;;;;;;8.26;100.00;96813.66;5028787;28;20201;-68
2023/12/27 09:33:59;;;;;;;5.53;2.70;;;;;;;8.57;100.00;96800.81;5035427;28;20710;-69
2023/12/27 09:36:26;;;;;;;9.13;3.47;;;;;;;8.52;100.00;96797.81;5035049;28;21229;-70
2023/12/27 09:38:53;;;;;;;5.10;2.80;;;;;;;8.53;100.00;96794.22;5035680;28;20197;-70
2023/12/27 09:41:20;;;;;;;5.20;2.60;;;;;;;8.64;100.00;96780.88;5035568;28;20588;-69
2023/12/27 09:43:47;;;;;;;6.40;2.73;;;;;;;8.82;100.00;96789.53;5037298;28;20225;-69
2023/12/27 09:46:14;;;;;;;7.00;3.07;;;;;;;8.96;100.00;96780.25;5036834;28;20667;-69
2023/12/27 09:48:41;;;;;;;5.13;2.63;;;;;;;8.98;100.00;96773.06;5035810;28;20564;-69
2023/12/27 09:51:11;;;;;;;4.77;3.10;;;;;;;9.06;100.00;96766.03;5036623;28;20259;-69
2023/12/27 09:53:39;;;;;;;4.63;2.00;;;;;;;9.01;100.00;96768.31;5037208;28;20265;-68
2023/12/27 09:56:08;;;;;;;4.80;2.07;;;;;;;8.90;100.00;96765.13;5036698;28;20290;-68
2023/12/27 09:58:37;;;;;;;2.87;1.60;;;;;;;9.08;100.00;96763.28;5035918;28;20209;-69
2023/12/27 10:01:06;;;;;;;3.67;1.60;;;;;;;8.81;100.00;96743.22;5026807;28;20674;-69
2023/12/27 10:03:35;;;;;;;3.57;2.17;;;;;;;9.20;100.00;96728.66;5035293;28;20229;-68
2023/12/27 10:06:15;;;;;;;5.10;1.43;;;;;;;9.29;100.00;96736.44;5033722;28;20207;-68
2023/12/27 10:08:41;;;;;;;2.83;1.50;;;;;;;9.20;100.00;96726.03;5034995;28;20212;-68
2023/12/27 10:11:10;;;;;;;5.67;2.00;;;;;;;9.52;100.00;96721.75;5035552;28;20209;-68
2023/12/27 10:13:38;;;;;;;6.43;1.70;;;;;;;9.86;100.00;96722.50;5034969;28;20248;-68
2023/12/27 10:16:05;;;;;;;4.17;1.97;;;;;;;9.71;100.00;96719.69;5034198;28;20233;-68
2023/12/27 10:18:32;;;;;;;3.23;1.53;;;;;;;9.69;100.00;96708.47;5033593;28;20223;-69
2023/12/27 10:20:59;;;;;;;1.80;1.57;;;;;;;9.60;100.00;96713.03;5028078;28;20202;-69
2023/12/27 10:23:27;;;;;;;2.93;1.70;;;;;;;9.52;100.00;96711.22;5032435;28;20234;-72
2023/12/27 10:25:53;;;;;;;3.07;1.90;;;;;;;9.61;100.00;96714.69;5032346;28;20205;-72
2023/12/27 10:28:23;;;;;;;3.43;1.60;;;;;;;9.60;100.00;96707.78;5031590;28;20205;-70
2023/12/27 10:30:51;;;;;;;2.97;1.90;;;;;;;9.71;100.00;96696.00;5027191;28;20225;-69
2023/12/27 10:33:17;;;;;;;3.20;1.67;;;;;;;9.83;100.00;96704.41;5032949;28;20213;-71
2023/12/27 10:35:44;;;;;;;6.20;2.03;;;;;;;9.70;100.00;96706.69;5031993;28;20342;-70
2023/12/27 10:38:10;;;;;;;6.80;2.30;;;;;;;9.81;100.00;96707.22;5031315;28;20197;-69
2023/12/27 10:40:39;;;;;;;2.23;1.30;;;;;;;9.88;100.00;96705.56;5034133;28;20762;-69
2023/12/27 10:43:06;;;;;;;3.63;2.10;;;;;;;9.92;100.00;96706.88;5035458;28;20225;-69
2023/12/27 10:45:32;;;;;;;3.53;1.80;;;;;;;9.91;100.00;96696.53;5034423;28;20205;-69
2023/12/27 10:48:00;;;;;;;3.70;1.47;;;;;;;10.12;100.00;96689.84;5035902;28;20331;-69
2023/12/27 10:50:28;;;;;;;3.37;1.60;;;;;;;10.30;100.00;96685.25;5034175;28;20201;-68
2023/12/27 10:53:02;;;;;;;8.77;2.03;;;;;;;10.20;100.00;96674.03;5033254;28;21199;-69
2023/12/27 10:55:29;;;;;;;2.50;1.47;;;;;;;10.15;100.00;96686.88;5033442;28;20205;-68
2023/12/27 10:58:00;;;;;;;5.33;1.57;;;;;;;10.25;100.00;96684.91;5034648;28;20209;-68
2023/12/27 11:00:27;;;;;;;3.57;1.80;;;;;;;10.17;100.00;96687.56;5036213;28;20204;-68
2023/12/27 11:02:55;;;;;;;2.93;1.77;;;;;;;10.34;100.00;96682.09;5036254;28;21444;-69
2023/12/27 11:05:23;;;;;;;5.57;1.77;;;;;;;10.51;100.00;96685.56;5034886;28;20212;-68
2023/12/27 11:07:53;;;;;;;4.73;2.10;;;;;;;10.46;100.00;96680.81;5036012;28;20201;-69
2023/12/27 11:10:21;;;;;;;3.77;2.23;;;;;;;10.41;100.00;96672.56;5036677;28;20216;-69
2023/12/27 11:12:48;;;;;;;3.83;1.63;;;;;;;10.41;100.00;96669.09;5035950;28;20282;-69
2023/12/27 11:15:18;;;;;;;3.17;1.50;;;;;;;10.52;100.00;96664.31;5036168;28;20214;-69
2023/12/27 11:17:46;;;;;;;2.70;1.67;;;;;;;10.40;100.00;96664.84;5035295;28;20222;-69
2023/12/27 11:20:14;;;;;;;2.97;1.60;;;;;;;10.35;100.00;96664.50;5035098;28;20239;-69
2023/12/27 11:22:42;;;;;;;2.47;1.43;;;;;;;10.48;100.00;96670.09;5033979;28;20233;-69
2023/12/27 11:25:10;;;;;;;5.73;1.27;;;;;;;10.29;100.00;96653.81;5035809;28;20209;-69
2023/12/27 11:27:37;;;;;;;2.50;1.57;;;;;;;10.31;97.34;96652.66;5034593;28;20202;-69
2023/12/27 11:30:09;;;;;;;1.77;1.40;;;;;;;10.43;96.27;96635.50;5034094;28;20254;-69